createdAt,value
2018-07-03T00:01:33.362Z,98222.94
2018-07-03T00:04:01.826Z,98218.77
2018-07-03T00:06:30.625Z,98212.11
2018-07-03T00:08:58.974Z,98213.75
2018-07-03T00:11:27.451Z,98212.72
2018-07-03T00:13:55.830Z,98210.30
2018-07-03T00:16:29.433Z,98218.30
2018-07-03T00:18:57.927Z,98215.19
2018-07-03T00:21:26.205Z,98214.50
2018-07-03T00:23:54.789Z,98212.69
2018-07-03T00:26:23.212Z,98217.50
2018-07-03T00:28:51.507Z,98223.23
2018-07-03T00:31:19.836Z,98218.45
2018-07-03T00:33:48.243Z,98212.88
2018-07-03T00:36:16.599Z,98213.11
2018-07-03T00:38:44.897Z,98210.41
2018-07-03T00:41:13.318Z,98220.48
2018-07-03T00:43:42.242Z,98221.16
2018-07-03T00:46:10.625Z,98222.59
2018-07-03T00:48:39.067Z,98217.78
2018-07-03T00:51:08.326Z,98218.89
2018-07-03T00:53:36.674Z,98219.64
2018-07-03T00:56:05.362Z,98217.90
2018-07-03T00:58:33.654Z,98215.33
2018-07-03T01:01:01.873Z,98218.37
2018-07-03T01:03:30.418Z,98219.59
2018-07-03T01:05:58.720Z,98216.08
2018-07-03T01:08:26.965Z,98216.38
2018-07-03T01:10:55.300Z,98221.34
2018-07-03T01:13:23.637Z,98211.56
2018-07-03T01:15:52.143Z,98215.17
2018-07-03T01:18:20.504Z,98213.42
2018-07-03T01:20:48.864Z,98214.05
2018-07-03T01:23:17.137Z,98219.48
2018-07-03T01:25:45.494Z,98219.68
2018-07-03T01:28:13.809Z,98225.58
2018-07-03T01:30:42.452Z,98226.97
2018-07-03T01:33:11.036Z,98222.34
2018-07-03T01:35:39.301Z,98208.61
2018-07-03T01:38:07.601Z,98222.02
2018-07-03T01:40:35.921Z,98222.64
2018-07-03T01:43:04.266Z,98227.31
2018-07-03T01:45:32.544Z,98228.99
2018-07-03T01:48:01.057Z,98230.92
2018-07-03T01:50:29.452Z,98238.45
2018-07-03T01:52:57.778Z,98235.55
2018-07-03T01:55:26.132Z,98235.76
2018-07-03T01:57:54.432Z,98237.00
2018-07-03T02:00:22.727Z,98240.87
2018-07-03T02:02:50.954Z,98241.13
2018-07-03T02:05:19.266Z,98244.41
2018-07-03T02:07:47.639Z,98244.41
2018-07-03T02:10:15.985Z,98240.89
2018-07-03T02:12:45.432Z,98238.59
2018-07-03T02:15:13.704Z,98239.84
2018-07-03T02:17:42.040Z,98237.53
2018-07-03T02:20:10.994Z,98237.75
2018-07-03T02:22:39.303Z,98235.11
2018-07-03T02:25:07.565Z,98235.31
2018-07-03T02:27:35.870Z,98234.84
2018-07-03T02:30:04.756Z,98242.09
2018-07-03T02:32:33.125Z,98242.53
2018-07-03T02:35:01.430Z,98245.00
2018-07-03T02:37:29.910Z,98245.20
2018-07-03T02:39:58.181Z,98248.94
2018-07-03T02:42:26.532Z,98244.48
2018-07-03T02:44:54.884Z,98249.73
2018-07-03T02:47:23.207Z,98245.09
2018-07-03T02:49:51.611Z,98250.18
2018-07-03T02:52:19.921Z,98252.45
2018-07-03T02:54:48.625Z,98255.91
2018-07-03T02:57:16.941Z,98260.22
2018-07-03T02:59:45.301Z,98260.22
2018-07-03T03:02:13.582Z,98269.22
2018-07-03T03:04:42.005Z,98267.45
2018-07-03T03:07:10.304Z,98266.62
2018-07-03T03:09:38.693Z,98260.61
2018-07-03T03:12:07.121Z,98259.22
2018-07-03T03:14:35.453Z,98262.29
2018-07-03T03:17:03.763Z,98256.77
2018-07-03T03:19:32.249Z,98257.39
2018-07-03T03:22:00.582Z,98258.80
2018-07-03T03:24:29.001Z,98261.06
2018-07-03T03:26:57.413Z,98255.63
2018-07-03T03:29:25.729Z,98268.25
2018-07-03T03:31:54.157Z,98269.80
2018-07-03T03:34:22.608Z,98275.08
2018-07-03T03:36:50.957Z,98268.13
2018-07-03T03:39:19.337Z,98267.58
2018-07-03T03:41:47.678Z,98264.39
2018-07-03T03:44:16.005Z,98268.70
2018-07-03T03:46:44.374Z,98274.40
2018-07-03T03:49:12.647Z,98276.11
2018-07-03T03:51:40.961Z,98276.91
2018-07-03T03:54:09.337Z,98275.91
2018-07-03T03:56:37.725Z,98279.44
2018-07-03T03:59:06.089Z,98283.67
2018-07-03T04:01:34.433Z,98284.89
2018-07-03T04:04:02.764Z,98283.23
2018-07-03T04:06:31.075Z,98284.27
2018-07-03T04:08:59.356Z,98290.10
2018-07-03T04:11:27.829Z,98286.58
2018-07-03T04:13:56.122Z,98283.84
2018-07-03T04:16:24.614Z,98283.12
2018-07-03T04:18:52.916Z,98290.27
2018-07-03T04:21:21.377Z,98273.72
2018-07-03T04:23:49.759Z,98287.00
2018-07-03T04:26:18.195Z,98282.62
2018-07-03T04:28:46.497Z,98285.07
2018-07-03T04:31:14.926Z,98288.34
2018-07-03T04:33:43.333Z,98284.48
2018-07-03T04:36:11.784Z,98284.00
2018-07-03T04:38:40.047Z,98288.83
2018-07-03T04:41:08.263Z,98280.48
2018-07-03T04:43:36.568Z,98279.18
2018-07-03T04:46:05.041Z,98278.70
2018-07-03T04:48:33.561Z,98289.67
2018-07-03T04:51:01.935Z,98288.45
2018-07-03T04:53:32.023Z,98284.19
2018-07-03T04:56:00.978Z,98287.27
2018-07-03T04:58:29.372Z,98282.89
2018-07-03T05:00:57.697Z,98279.66
2018-07-03T05:03:26.133Z,98275.60
2018-07-03T05:05:54.514Z,98280.92
2018-07-03T05:08:22.855Z,98283.34
2018-07-03T05:10:51.212Z,98290.53
2018-07-03T05:13:19.683Z,98290.76
2018-07-03T05:21:44.850Z,98296.58
2018-07-03T05:24:14.130Z,98300.39
2018-07-03T05:26:44.044Z,98295.81
2018-07-03T05:29:13.675Z,98294.20
2018-07-03T05:31:42.886Z,98293.39
2018-07-03T05:34:14.109Z,98297.11
2018-07-03T05:36:43.240Z,98301.93
2018-07-03T05:39:14.063Z,98299.02
2018-07-03T05:41:43.908Z,98297.23
2018-07-03T05:44:12.951Z,98292.93
2018-07-03T05:46:42.428Z,98297.78
2018-07-03T05:49:11.712Z,98293.37
2018-07-03T05:51:41.027Z,98299.75
2018-07-03T05:54:10.252Z,98301.48
2018-07-03T05:56:39.360Z,98307.19
2018-07-03T05:59:08.470Z,98306.11
2018-07-03T06:01:37.796Z,98309.02
2018-07-03T06:04:07.930Z,98311.58
2018-07-03T06:06:37.135Z,98308.05
2018-07-03T06:09:08.551Z,98319.69
2018-07-03T06:11:37.209Z,98325.50
2018-07-03T06:14:07.167Z,98325.70
2018-07-03T06:16:36.348Z,98330.20
2018-07-03T06:19:05.659Z,98331.05
2018-07-03T06:21:34.668Z,98332.59
2018-07-03T06:24:04.098Z,98331.99
2018-07-03T06:26:33.181Z,98330.70
2018-07-03T06:29:02.431Z,98331.75
2018-07-03T06:31:31.973Z,98332.18
2018-07-03T06:34:00.879Z,98332.58
2018-07-03T06:36:29.659Z,98334.50
2018-07-03T06:38:58.865Z,98333.55
2018-07-03T06:41:29.372Z,98330.48
2018-07-03T06:43:58.468Z,98335.09
2018-07-03T06:46:27.389Z,98332.95
2018-07-03T06:48:57.090Z,98334.70
2018-07-03T06:51:25.976Z,98330.50
2018-07-03T06:53:54.825Z,98324.95
2018-07-03T06:56:24.832Z,98324.70
2018-07-03T06:58:54.326Z,98333.75
2018-07-03T07:01:23.494Z,98335.33
2018-07-03T07:03:52.543Z,98330.77
2018-07-03T07:06:23.742Z,98338.66
2018-07-03T07:08:53.247Z,98327.91
2018-07-03T07:11:22.181Z,98328.06
2018-07-03T07:13:55.224Z,98324.28
2018-07-03T07:16:29.829Z,98318.42
2018-07-03T07:19:03.471Z,98320.52
2018-07-03T07:21:33.055Z,98315.22
2018-07-03T07:24:02.032Z,98311.13
2018-07-03T07:26:30.921Z,98312.12
2018-07-03T07:28:59.944Z,98317.77
2018-07-03T07:31:28.667Z,98319.17
2018-07-03T07:33:57.594Z,98320.09
2018-07-03T07:36:26.587Z,98321.55
2018-07-03T07:38:56.190Z,98326.15
2018-07-03T07:41:25.522Z,98323.45
2018-07-03T07:43:54.918Z,98326.88
2018-07-03T07:46:23.860Z,98322.09
2018-07-03T07:48:53.449Z,98327.88
2018-07-03T07:51:22.463Z,98337.16
2018-07-03T07:53:51.461Z,98333.23
2018-07-03T07:56:20.599Z,98335.32
2018-07-03T07:58:49.399Z,98332.73
2018-07-03T08:01:18.752Z,98336.88
2018-07-03T08:03:47.664Z,98342.23
2018-07-03T08:06:17.096Z,98338.33
2018-07-03T08:08:45.975Z,98337.98
2018-07-03T08:11:15.555Z,98335.64
2018-07-03T08:13:44.600Z,98343.85
2018-07-03T08:16:13.603Z,98338.10
2018-07-03T08:18:42.480Z,98335.70
2018-07-03T08:21:11.437Z,98329.91
2018-07-03T08:23:40.353Z,98331.94
2018-07-03T08:26:09.215Z,98331.59
2018-07-03T08:28:38.216Z,98338.39
2018-07-03T08:31:07.053Z,98334.11
2018-07-03T08:33:36.269Z,98332.76
2018-07-03T08:36:05.863Z,98324.31
2018-07-03T08:38:34.714Z,98328.61
2018-07-03T08:41:03.804Z,98326.64
2018-07-03T08:43:32.830Z,98325.59
2018-07-03T08:46:01.590Z,98324.99
2018-07-03T08:48:31.136Z,98326.95
2018-07-03T08:50:59.921Z,98328.69
2018-07-03T08:53:28.981Z,98324.92
2018-07-03T08:55:57.749Z,98329.48
2018-07-03T08:58:26.468Z,98336.69
2018-07-03T09:00:55.641Z,98342.98
2018-07-03T09:03:24.435Z,98345.10
2018-07-03T09:05:53.552Z,98340.66
2018-07-03T09:08:22.444Z,98354.04
2018-07-03T09:10:51.186Z,98346.96
2018-07-03T09:13:19.909Z,98349.13
2018-07-03T09:15:48.994Z,98341.74
2018-07-03T09:18:17.716Z,98342.33
2018-07-03T09:20:46.548Z,98345.44
2018-07-03T09:23:15.579Z,98350.55
2018-07-03T09:25:45.195Z,98350.77
2018-07-03T09:28:14.038Z,98354.55
2018-07-03T09:30:42.852Z,98352.69
2018-07-03T09:33:11.845Z,98350.55
2018-07-03T09:35:40.719Z,98343.30
2018-07-03T09:38:10.057Z,98351.20
2018-07-03T09:40:39.338Z,98352.55
2018-07-03T09:43:08.802Z,98349.53
2018-07-03T09:45:37.573Z,98353.28
2018-07-03T09:48:06.767Z,98348.03
2018-07-03T09:50:35.792Z,98350.28
2018-07-03T09:53:05.708Z,98352.40
2018-07-03T09:55:34.562Z,98353.14
2018-07-03T09:58:03.234Z,98350.76
2018-07-03T10:00:38.022Z,98355.27
2018-07-03T10:03:06.837Z,98355.59
2018-07-03T10:05:36.228Z,98362.40
2018-07-03T10:08:05.384Z,98366.47
2018-07-03T10:10:34.320Z,98372.47
2018-07-03T10:13:03.070Z,98367.27
2018-07-03T10:15:31.756Z,98367.55
2018-07-03T10:18:05.342Z,98370.17
2018-07-03T10:20:34.232Z,98369.89
2018-07-03T10:23:04.146Z,98367.97
2018-07-03T10:25:33.013Z,98366.73
2018-07-03T10:28:01.882Z,98366.42
2018-07-03T10:30:30.923Z,98365.77
2018-07-03T10:32:59.846Z,98362.09
2018-07-03T10:35:29.366Z,98361.30
2018-07-03T10:37:58.133Z,98358.36
2018-07-03T10:40:27.090Z,98353.09
2018-07-03T10:42:55.920Z,98347.44
2018-07-03T10:45:24.757Z,98348.03
2018-07-03T10:47:53.729Z,98347.02
2018-07-03T10:50:22.982Z,98341.28
2018-07-03T10:52:52.163Z,98340.17
2018-07-03T10:55:22.159Z,98333.94
2018-07-03T10:57:51.241Z,98334.77
2018-07-03T11:00:20.106Z,98334.10
2018-07-03T11:02:49.480Z,98331.56
2018-07-03T11:05:19.701Z,98326.94
2018-07-03T11:07:48.528Z,98325.91
2018-07-03T11:10:17.233Z,98319.61
2018-07-03T11:12:45.865Z,98324.73
2018-07-03T11:15:14.964Z,98329.34
2018-07-03T11:17:43.803Z,98321.22
2018-07-03T11:20:13.222Z,98323.75
2018-07-03T11:22:42.604Z,98314.39
2018-07-03T11:25:11.630Z,98313.69
2018-07-03T11:27:40.435Z,98315.88
2018-07-03T11:30:09.873Z,98317.08
2018-07-03T11:32:38.651Z,98310.82
2018-07-03T11:35:07.439Z,98311.48
2018-07-03T11:37:36.747Z,98313.88
2018-07-03T11:40:05.938Z,98311.13
2018-07-03T11:42:35.761Z,98309.51
2018-07-03T11:45:05.094Z,98308.06
2018-07-03T11:47:34.634Z,98308.48
2018-07-03T11:50:04.061Z,98310.78
2018-07-03T11:52:33.243Z,98303.83
2018-07-03T11:55:01.833Z,98296.23
2018-07-03T11:57:30.544Z,98303.03
2018-07-03T11:59:59.721Z,98306.48
2018-07-03T12:02:28.378Z,98295.94
2018-07-03T12:04:57.840Z,98282.63
2018-07-03T12:07:26.929Z,98286.77
2018-07-03T12:09:56.527Z,98280.86
2018-07-03T12:12:26.235Z,98287.04
2018-07-03T12:14:55.704Z,98286.05
2018-07-03T12:17:25.440Z,98295.98
2018-07-03T12:19:54.580Z,98291.34
2018-07-03T12:22:23.433Z,98288.91
2018-07-03T12:24:54.353Z,98297.61
2018-07-03T12:27:23.786Z,98285.37
2018-07-03T12:29:52.682Z,98283.07
2018-07-03T12:32:21.865Z,98280.85
2018-07-03T12:34:50.786Z,98285.80
2018-07-03T12:37:19.858Z,98292.58
2018-07-03T12:39:48.966Z,98292.36
2018-07-03T12:42:17.677Z,98288.16
2018-07-03T12:44:46.440Z,98289.41
2018-07-03T12:47:15.558Z,98284.34
2018-07-03T12:49:44.452Z,98279.52
2018-07-03T12:52:13.651Z,98271.72
2018-07-03T12:54:42.557Z,98272.64
2018-07-03T12:57:11.735Z,98270.11
2018-07-03T12:59:40.731Z,98270.23
2018-07-03T13:02:10.877Z,98267.62
2018-07-03T13:04:40.114Z,98265.52
2018-07-03T13:07:08.770Z,98269.05
2018-07-03T13:09:37.680Z,98263.62
2018-07-03T13:12:07.267Z,98267.41
2018-07-03T13:14:36.632Z,98259.50
2018-07-03T13:17:06.058Z,98266.72
2018-07-03T13:19:34.860Z,98265.16
2018-07-03T13:22:04.922Z,98262.71
2018-07-03T13:24:34.018Z,98254.62
2018-07-03T13:27:03.373Z,98257.17
2018-07-03T13:29:32.353Z,98249.82
2018-07-03T13:32:01.281Z,98247.84
2018-07-03T13:34:30.061Z,98251.84
2018-07-03T13:36:59.021Z,98249.79
2018-07-03T13:39:28.045Z,98246.07
2018-07-03T13:41:56.852Z,98240.61
2018-07-03T13:44:25.987Z,98241.66
2018-07-03T13:46:55.989Z,98240.77
2018-07-03T13:49:24.929Z,98237.61
2018-07-03T13:51:54.240Z,98239.83
2018-07-03T13:54:23.219Z,98243.27
2018-07-03T13:56:52.010Z,98238.13
2018-07-03T13:59:21.323Z,98244.91
2018-07-03T14:01:50.193Z,98244.09
2018-07-03T14:04:20.305Z,98241.42
2018-07-03T14:06:49.057Z,98233.18
2018-07-03T14:09:18.688Z,98241.88
2018-07-03T14:11:47.518Z,98237.34
2018-07-03T14:14:16.463Z,98238.36
2018-07-03T14:16:45.403Z,98234.44
2018-07-03T14:19:15.040Z,98229.38
2018-07-03T14:21:44.024Z,98235.23
2018-07-03T14:24:13.267Z,98238.87
2018-07-03T14:26:42.296Z,98226.25
2018-07-03T14:29:11.193Z,98229.97
2018-07-03T14:31:40.092Z,98228.13
2018-07-03T14:34:08.962Z,98226.70
2018-07-03T14:36:37.828Z,98237.38
2018-07-03T14:39:10.202Z,98233.05
2018-07-03T14:41:39.681Z,98233.70
2018-07-03T14:44:08.585Z,98230.46
2018-07-03T14:46:37.428Z,98233.45
2018-07-03T14:49:06.531Z,98235.38
2018-07-03T14:51:35.495Z,98235.71
2018-07-03T14:54:04.254Z,98229.46
2018-07-03T14:56:33.247Z,98231.02
2018-07-03T14:59:02.795Z,98232.60
2018-07-03T15:01:31.533Z,98223.37
2018-07-03T15:04:00.571Z,98227.72
2018-07-03T15:06:29.668Z,98225.30
2018-07-03T15:08:58.853Z,98223.76
2018-07-03T15:11:28.250Z,98222.01
2018-07-03T15:13:57.456Z,98217.53
2018-07-03T15:16:26.188Z,98219.77
2018-07-03T15:19:02.052Z,98218.09
2018-07-03T15:21:31.040Z,98213.23
2018-07-03T15:24:00.307Z,98207.29
2018-07-03T15:26:29.350Z,98211.97
2018-07-03T15:28:58.213Z,98201.08
2018-07-03T15:31:27.922Z,98201.23
2018-07-03T15:33:56.959Z,98196.08
2018-07-03T15:36:25.778Z,98198.38
2018-07-03T15:38:54.930Z,98195.66
2018-07-03T15:41:24.209Z,98190.70
2018-07-03T15:44:03.900Z,98193.65
2018-07-03T15:46:33.049Z,98182.16
2018-07-03T15:49:01.899Z,98182.89
2018-07-03T15:51:30.569Z,98183.81
2018-07-03T15:53:59.822Z,98187.02
2018-07-03T15:56:28.672Z,98185.04
2018-07-03T15:58:57.693Z,98176.03
2018-07-03T16:01:26.685Z,98172.27
2018-07-03T16:04:10.601Z,98173.19
2018-07-03T16:07:22.028Z,98172.67
2018-07-03T16:09:51.015Z,98174.80
2018-07-03T16:12:23.042Z,98182.13
2018-07-03T16:14:54.090Z,98176.44
2018-07-03T16:17:26.658Z,98180.67
2018-07-03T16:20:04.740Z,98180.61
2018-07-03T16:22:34.788Z,98171.23
2018-07-03T16:25:11.022Z,98172.95
2018-07-03T16:27:45.042Z,98176.94
2018-07-03T16:30:16.780Z,98170.34
2018-07-03T16:32:47.906Z,98174.31
2018-07-03T16:35:21.055Z,98172.98
2018-07-03T16:37:52.929Z,98169.16
2018-07-03T16:40:24.940Z,98159.59
2018-07-03T16:42:55.549Z,98168.03
2018-07-03T16:45:33.345Z,98171.94
2018-07-03T16:48:08.844Z,98169.88
2018-07-03T16:50:40.590Z,98171.27
2018-07-03T16:53:14.788Z,98163.77
2018-07-03T16:55:47.127Z,98166.72
2018-07-03T16:58:18.203Z,98169.28
2018-07-03T17:00:47.540Z,98162.36
2018-07-03T17:03:17.768Z,98165.92
2018-07-03T17:05:46.688Z,98163.38
2018-07-03T17:11:54.465Z,98166.41
2018-07-03T17:14:25.033Z,98166.15
2018-07-03T17:16:55.207Z,98162.39
2018-07-03T17:19:31.687Z,98162.42
2018-07-03T17:22:02.026Z,98160.36
2018-07-03T17:24:33.510Z,98164.45
2018-07-03T17:27:03.971Z,98166.17
2018-07-03T17:29:33.517Z,98163.73
2018-07-03T17:32:02.527Z,98162.98
2018-07-03T17:34:31.396Z,98160.28
2018-07-03T17:37:00.942Z,98156.45
2018-07-03T17:39:40.807Z,98156.59
2018-07-03T17:42:20.699Z,98156.05
2018-07-03T17:46:01.561Z,98157.00
2018-07-03T17:48:30.699Z,98152.68
2018-07-03T17:50:59.708Z,98154.97
2018-07-03T17:53:28.457Z,98161.28
2018-07-03T17:55:58.145Z,98152.70
2018-07-03T17:58:27.398Z,98161.70
2018-07-03T18:00:57.153Z,98152.23
2018-07-03T18:03:26.567Z,98162.59
2018-07-03T18:05:55.796Z,98160.66
2018-07-03T18:08:25.107Z,98162.35
2018-07-03T18:10:58.056Z,98161.45
2018-07-03T18:13:28.099Z,98167.05
2018-07-03T18:15:58.767Z,98165.03
2018-07-03T18:18:36.763Z,98160.81
2018-07-03T18:21:05.963Z,98165.41
2018-07-03T18:23:36.056Z,98168.27
2018-07-03T18:26:09.127Z,98167.38
2018-07-03T18:28:38.507Z,98170.13
2018-07-03T18:31:07.560Z,98169.26
2018-07-03T18:33:37.029Z,98171.30
2018-07-03T18:36:08.500Z,98164.97
2018-07-03T18:38:37.935Z,98174.52
2018-07-03T18:41:06.979Z,98174.02
2018-07-03T18:43:35.884Z,98171.24
2018-07-03T18:46:05.238Z,98172.89
2018-07-03T18:48:35.826Z,98175.53
2018-07-03T18:51:06.967Z,98182.81
2018-07-03T18:53:37.046Z,98180.55
2018-07-03T18:56:06.888Z,98175.34
2018-07-03T18:58:35.838Z,98178.73
2018-07-03T19:01:06.041Z,98178.30
2018-07-03T19:03:35.462Z,98184.00
2018-07-03T19:06:07.304Z,98190.45
2018-07-03T19:08:37.275Z,98193.00
2018-07-03T19:11:06.378Z,98189.89
2018-07-03T19:13:36.252Z,98195.55
2018-07-03T19:16:05.447Z,98199.12
2018-07-03T19:18:34.370Z,98196.78
2018-07-03T19:21:03.365Z,98196.89
2018-07-03T19:23:32.420Z,98196.73
2018-07-03T19:26:01.589Z,98200.75
2018-07-03T19:28:30.354Z,98203.88
2018-07-03T19:30:59.304Z,98200.86
2018-07-03T19:33:28.161Z,98197.59
2018-07-03T19:35:58.031Z,98202.64
2018-07-03T19:38:27.245Z,98202.02
2018-07-03T19:40:57.183Z,98197.42
2018-07-03T19:43:30.304Z,98198.30
2018-07-03T19:45:59.882Z,98205.30
2018-07-03T19:48:29.100Z,98203.52
2018-07-03T19:50:58.160Z,98200.73
2018-07-03T19:53:27.142Z,98205.40
2018-07-03T19:55:57.665Z,98208.02
2018-07-03T19:58:27.305Z,98209.12
2018-07-03T20:00:57.108Z,98215.84
2018-07-03T20:03:26.178Z,98218.45
2018-07-03T20:05:55.287Z,98217.83
2018-07-03T20:08:24.378Z,98218.05
2018-07-03T20:10:53.581Z,98216.33
2018-07-03T20:13:22.291Z,98220.25
2018-07-03T20:15:50.940Z,98217.29
2018-07-03T20:18:20.267Z,98215.34
2018-07-03T20:20:49.472Z,98215.94
2018-07-03T20:23:18.360Z,98216.95
2018-07-03T20:25:47.630Z,98220.45
2018-07-03T20:28:17.458Z,98220.53
2018-07-03T20:30:46.542Z,98232.59
2018-07-03T20:33:16.069Z,98227.55
2018-07-03T20:35:48.763Z,98232.58
2018-07-03T20:38:17.385Z,98228.99
2018-07-03T20:41:09.232Z,98241.67
2018-07-03T20:43:40.974Z,98229.58
2018-07-03T20:46:13.387Z,98231.72
2018-07-03T20:48:43.038Z,98224.78
2018-07-03T20:51:11.887Z,98238.01
2018-07-03T20:53:52.511Z,98240.56
2018-07-03T20:56:23.045Z,98239.02
2018-07-03T20:58:52.966Z,98240.05
2018-07-03T21:01:22.440Z,98240.83
2018-07-03T21:03:52.199Z,98239.76
2018-07-03T21:06:21.614Z,98237.41
2018-07-03T21:08:50.709Z,98238.12
2018-07-03T21:11:20.037Z,98240.36
2018-07-03T21:13:49.516Z,98238.44
2018-07-03T21:16:18.315Z,98242.41
2018-07-03T21:18:48.425Z,98240.70
2018-07-03T21:21:18.559Z,98238.66
2018-07-03T21:23:47.842Z,98242.14
2018-07-03T21:26:17.099Z,98242.00
2018-07-03T21:28:45.887Z,98240.84
2018-07-03T21:31:14.968Z,98233.51
2018-07-03T21:33:43.964Z,98232.17
2018-07-03T21:36:13.284Z,98240.75
2018-07-03T21:38:42.199Z,98246.12
2018-07-03T21:41:13.645Z,98242.63
2018-07-03T21:43:45.823Z,98248.21
2018-07-03T21:46:14.951Z,98248.47
2018-07-03T21:48:46.770Z,98250.44
2018-07-03T21:51:17.665Z,98245.91
2018-07-03T21:53:48.078Z,98252.95
2018-07-03T21:56:18.291Z,98252.31
2018-07-03T21:58:49.726Z,98256.11
2018-07-03T22:01:19.054Z,98268.69
2018-07-03T22:03:49.666Z,98272.72
2018-07-03T22:06:20.160Z,98274.23
2018-07-03T22:08:49.132Z,98273.28
2018-07-03T22:11:18.740Z,98277.49
2018-07-03T22:13:47.736Z,98277.58
2018-07-03T22:16:16.739Z,98282.09
2018-07-03T22:18:45.610Z,98283.36
2018-07-03T22:21:17.030Z,98270.94
2018-07-03T22:23:45.934Z,98283.16
2018-07-03T22:26:15.842Z,98278.41
2018-07-03T22:28:45.137Z,98279.91
2018-07-03T22:31:13.988Z,98279.35
2018-07-03T22:33:42.983Z,98282.15
2018-07-03T22:36:11.907Z,98285.05
2018-07-03T22:38:41.211Z,98285.83
2018-07-03T22:41:15.671Z,98282.30
2018-07-03T22:43:45.901Z,98280.27
2018-07-03T22:49:25.037Z,98281.37
2018-07-03T22:51:54.858Z,98288.06
2018-07-03T22:54:23.757Z,98289.69
2018-07-03T22:56:53.168Z,98288.34
2018-07-03T22:59:22.063Z,98294.86
2018-07-03T23:01:51.585Z,98294.74
2018-07-03T23:04:20.204Z,98300.58
2018-07-03T23:06:49.115Z,98307.84
2018-07-03T23:09:18.031Z,98313.94
2018-07-03T23:11:46.916Z,98315.93
2018-07-03T23:14:16.338Z,98315.07
2018-07-03T23:16:45.339Z,98317.95
2018-07-03T23:19:14.401Z,98321.97
2018-07-03T23:21:43.651Z,98322.17
2018-07-03T23:24:12.529Z,98326.75
2018-07-03T23:26:41.870Z,98327.33
2018-07-03T23:29:10.812Z,98333.16
2018-07-03T23:31:40.104Z,98325.59
2018-07-03T23:34:10.191Z,98324.56
2018-07-03T23:36:39.229Z,98318.44
2018-07-03T23:39:09.322Z,98322.38
2018-07-03T23:41:38.166Z,98316.13
2018-07-03T23:44:07.052Z,98315.20
2018-07-03T23:46:47.085Z,98319.66
2018-07-03T23:49:27.280Z,98314.70
2018-07-03T23:52:07.193Z,98315.98
2018-07-03T23:54:47.326Z,98317.42
2018-07-03T23:57:27.425Z,98321.23
